Time;durP1;ratioP1;P1;durP2;ratioP2;P2;SDS_P1;SDS_P2;PMS_P1;PMS_P2;Temp;Humidity;BMP_temperature;BMP_pressure;BME280_temperature;BME280_humidity;BME280_pressure;Samples;Min_cycle;Max_cycle;Signal;HPM_P1;HPM_P2
2021/10/28 00:13:44;;;;;;;18.25;11.15;;;;;;;11.97;74.51;101529.98;1729280;81;26438;-67
2021/10/28 00:16:16;;;;;;;20.45;11.73;;;;;;;11.97;74.50;101530.45;1730947;81;25732;-67
2021/10/28 00:18:45;;;;;;;23.15;11.63;;;;;;;11.97;74.49;101525.95;1738694;81;25733;-67
2021/10/28 00:21:08;;;;;;;18.00;10.72;;;;;;;11.96;74.47;101526.88;1742881;81;25781;-67
2021/10/28 00:23:42;;;;;;;19.25;10.53;;;;;;;11.96;74.47;101526.88;1711250;82;27435;-67
2021/10/28 00:26:03;;;;;;;15.90;9.95;;;;;;;11.95;74.46;101520.22;1721543;81;25851;-68
2021/10/28 00:28:29;;;;;;;18.82;10.85;;;;;;;11.95;74.51;101527.81;1698140;82;25904;-67
2021/10/28 00:30:55;;;;;;;15.90;9.35;;;;;;;11.96;74.52;101526.88;1702272;83;26195;-67
2021/10/28 00:33:21;;;;;;;16.37;10.08;;;;;;;11.95;74.43;101523.79;1735182;81;25894;-67
2021/10/28 00:35:47;;;;;;;19.45;10.68;;;;;;;11.96;74.47;101526.01;1732497;81;28118;-67
2021/10/28 00:38:13;;;;;;;16.80;10.40;;;;;;;11.96;74.47;101519.29;1729408;81;26364;-67
2021/10/28 00:40:39;;;;;;;19.32;10.10;;;;;;;11.96;74.50;101517.48;1733729;81;25792;-67
2021/10/28 00:43:05;;;;;;;17.02;10.70;;;;;;;11.97;74.48;101522.39;1738393;81;27651;-68
2021/10/28 00:45:32;;;;;;;17.30;10.15;;;;;;;11.97;74.47;101519.70;1736537;81;25911;-67
2021/10/28 00:47:58;;;;;;;20.43;10.63;;;;;;;11.97;74.49;101518.36;1736096;81;27418;-68
2021/10/28 00:50:25;;;;;;;15.38;8.95;;;;;;;11.98;74.48;101520.99;1709895;82;25847;-67
2021/10/28 00:52:51;;;;;;;18.60;9.53;;;;;;;11.98;74.47;101516.08;1738469;81;25884;-67
2021/10/28 00:55:17;;;;;;;14.83;8.93;;;;;;;11.98;74.43;101520.11;1709505;82;25869;-67
2021/10/28 00:57:46;;;;;;;15.68;9.45;;;;;;;11.97;74.43;101515.67;1729713;82;26471;-67
2021/10/28 01:00:12;;;;;;;14.78;8.53;;;;;;;11.95;74.41;101514.38;1717401;81;27505;-67
2021/10/28 01:02:38;;;;;;;16.77;9.15;;;;;;;11.95;74.44;101515.73;1726559;81;25828;-67
2021/10/28 01:05:04;;;;;;;21.42;9.28;;;;;;;11.95;74.43;101510.82;1722184;82;26199;-67
2021/10/28 01:07:30;;;;;;;15.32;9.10;;;;;;;11.97;74.45;101517.02;1713247;82;25807;-67
2021/10/28 01:09:56;;;;;;;15.05;9.45;;;;;;;11.97;74.42;101515.67;1716546;82;25858;-67
2021/10/28 01:12:22;;;;;;;16.17;8.75;;;;;;;11.95;74.40;101515.73;1681082;83;28208;-67
2021/10/28 01:14:48;;;;;;;15.50;9.63;;;;;;;11.95;74.44;101517.53;1709075;82;26840;-67
2021/10/28 01:17:14;;;;;;;15.30;8.93;;;;;;;11.96;74.41;101520.17;1711141;82;26631;-67
2021/10/28 01:19:40;;;;;;;17.98;9.85;;;;;;;11.96;74.38;101517.95;1722889;82;26044;-67
2021/10/28 01:22:06;;;;;;;19.45;10.75;;;;;;;11.96;74.42;101520.17;1709721;82;26479;-67
2021/10/28 01:24:33;;;;;;;14.65;8.83;;;;;;;11.96;74.37;101514.80;1712799;82;28611;-67
2021/10/28 01:27:08;;;;;;;15.10;9.00;;;;;;;11.98;74.38;101516.08;1725885;81;26186;-67
2021/10/28 01:29:36;;;;;;;15.50;9.13;;;;;;;11.94;74.35;101518.00;1720275;82;25876;-67
2021/10/28 01:32:05;;;;;;;19.57;9.13;;;;;;;11.95;74.37;101520.22;1688133;83;26235;-68
2021/10/28 01:34:31;;;;;;;15.48;9.55;;;;;;;11.94;74.36;101516.66;1716177;82;25705;-68
2021/10/28 01:36:59;;;;;;;16.52;10.20;;;;;;;11.93;74.37;101516.25;1720892;82;29542;-67
2021/10/28 01:39:25;;;;;;;16.12;10.00;;;;;;;11.93;74.35;101518.05;1724756;81;25773;-67
2021/10/28 01:41:53;;;;;;;13.08;9.30;;;;;;;11.92;74.37;101518.98;1707590;82;25709;-67
2021/10/28 01:44:20;;;;;;;15.83;8.83;;;;;;;11.90;74.36;101515.02;1717370;82;25727;-67
2021/10/28 01:46:47;;;;;;;14.83;9.58;;;;;;;11.90;74.34;101516.36;1701051;82;25845;-67
2021/10/28 01:49:23;;;;;;;18.55;9.75;;;;;;;11.90;74.36;101517.70;1720247;82;28006;-67
2021/10/28 01:51:50;;;;;;;14.58;9.00;;;;;;;11.89;74.34;101515.94;1728398;82;25728;-68
2021/10/28 01:54:17;;;;;;;13.72;9.25;;;;;;;11.89;74.32;101511.91;1721875;81;25785;-68
2021/10/28 01:56:44;;;;;;;14.38;9.60;;;;;;;11.89;74.34;101517.28;1717066;82;26224;-68
2021/10/28 01:59:10;;;;;;;15.63;8.80;;;;;;;11.88;74.34;101507.47;1716501;81;26029;-67
2021/10/28 02:01:36;;;;;;;14.60;8.53;;;;;;;11.87;74.33;101515.12;1745239;80;27432;-68
2021/10/28 02:04:03;;;;;;;13.88;8.95;;;;;;;11.87;74.33;101511.55;1737101;80;25896;-68
2021/10/28 02:06:29;;;;;;;13.03;8.48;;;;;;;11.86;74.33;101513.83;1709847;82;26297;-67
2021/10/28 02:08:56;;;;;;;18.90;9.85;;;;;;;11.87;74.34;101507.06;1739472;80;25799;-67
2021/10/28 02:11:22;;;;;;;17.62;8.70;;;;;;;11.86;74.32;101503.95;1697617;82;25807;-67
2021/10/28 02:13:47;;;;;;;18.25;9.38;;;;;;;11.86;74.29;101506.64;1721976;82;27475;-67
2021/10/28 02:16:14;;;;;;;18.82;9.30;;;;;;;11.85;74.30;101503.55;1739970;80;26425;-68
2021/10/28 02:18:40;;;;;;;18.15;9.78;;;;;;;11.87;74.28;101508.40;1732475;80;26173;-67
2021/10/28 02:21:06;;;;;;;17.37;10.30;;;;;;;11.85;74.27;101506.70;1714006;82;26032;-67
2021/10/28 02:23:34;;;;;;;15.93;9.00;;;;;;;11.84;74.25;101508.97;1737007;80;25797;-67
2021/10/28 02:26:00;;;;;;;17.07;9.60;;;;;;;11.83;74.26;101511.25;1742111;80;27372;-69
2021/10/28 02:28:26;;;;;;;14.10;8.85;;;;;;;11.82;74.24;101505.00;1739690;80;25793;-67
2021/10/28 02:30:52;;;;;;;16.17;8.38;;;;;;;11.81;74.18;101513.98;1717316;82;25718;-67
2021/10/28 02:33:18;;;;;;;11.57;9.28;;;;;;;11.79;74.21;101514.97;1732303;81;25938;-68
2021/10/28 02:35:45;;;;;;;11.70;8.65;;;;;;;11.80;74.25;101515.38;1740586;80;51890;-68
2021/10/28 02:38:11;;;;;;;13.10;9.30;;;;;;;11.79;74.23;101527.94;1736178;80;27403;-67
2021/10/28 02:40:37;;;;;;;16.55;9.58;;;;;;;11.79;74.23;101522.56;1709450;82;25829;-68
2021/10/28 02:43:03;;;;;;;20.20;9.20;;;;;;;11.78;74.18;101526.18;1747060;80;25821;-68
2021/10/28 02:45:29;;;;;;;13.90;9.63;;;;;;;11.78;74.23;101528.86;1741386;80;25780;-68
2021/10/28 02:47:56;;;;;;;14.10;10.13;;;;;;;11.79;74.23;101532.42;1711939;82;25523;-67
2021/10/28 02:50:23;;;;;;;11.93;9.23;;;;;;;11.78;74.21;101527.98;1744003;80;28056;-70
2021/10/28 02:52:49;;;;;;;17.02;9.93;;;;;;;11.78;74.20;101530.67;1736891;80;25826;-67
2021/10/28 02:55:15;;;;;;;17.57;10.25;;;;;;;11.75;74.16;101531.63;1740750;80;26056;-67
2021/10/28 02:57:42;;;;;;;14.60;10.63;;;;;;;11.74;74.19;101532.55;1746300;80;25893;-67
2021/10/28 03:00:11;;;;;;;14.23;9.53;;;;;;;11.75;74.20;101542.83;1734282;81;25988;-67
2021/10/28 03:02:36;;;;;;;13.95;10.05;;;;;;;11.75;74.19;101541.02;1728572;81;27392;-67
2021/10/28 03:05:05;;;;;;;15.08;10.23;;;;;;;11.74;74.17;101545.98;1724290;81;26072;-67
2021/10/28 03:07:33;;;;;;;14.47;10.93;;;;;;;11.74;74.19;101548.67;1727767;81;25781;-67
2021/10/28 03:09:58;;;;;;;15.60;10.50;;;;;;;11.74;74.20;101535.23;1724275;81;26001;-67
2021/10/28 03:12:25;;;;;;;15.03;10.90;;;;;;;11.74;74.17;101549.13;1726088;81;25716;-67
2021/10/28 03:14:55;;;;;;;12.88;9.68;;;;;;;11.72;74.16;101545.16;1728352;81;29464;-67
2021/10/28 03:17:35;;;;;;;21.77;11.50;;;;;;;11.71;74.13;101548.77;1724840;81;25893;-67
2021/10/28 03:27:47;;;;;;;22.00;12.15;;;;;;;11.63;74.15;101557.55;1698758;82;27588;-67
2021/10/28 03:30:14;;;;;;;18.52;12.23;;;;;;;11.61;74.20;101557.59;1722570;81;25955;-68
2021/10/28 03:32:41;;;;;;;17.75;11.28;;;;;;;11.58;74.15;101558.16;1701472;82;25792;-67
2021/10/28 03:35:11;;;;;;;18.02;12.00;;;;;;;11.58;74.19;101563.06;1720272;81;25762;-67
2021/10/28 03:37:54;;;;;;;18.02;11.97;;;;;;;11.57;74.17;101564.46;1701141;82;26370;-67
2021/10/28 03:43:36;;;;;;;20.62;13.22;;;;;;;11.46;74.16;101577.36;1703832;82;25878;-67
2021/10/28 03:46:25;;;;;;;20.45;13.65;;;;;;;11.41;74.22;101582.87;1723700;81;25751;-67
2021/10/28 03:57:02;;;;;;;20.23;14.43;;;;;;;11.13;74.28;101584.66;1717108;81;25848;-66
2021/10/28 04:03:25;;;;;;;25.43;15.15;;;;;;;11.00;74.31;101586.37;1719071;81;26392;-69
2021/10/28 04:07:18;;;;;;;21.65;13.68;;;;;;;10.92;74.44;101578.13;1657904;82;27477;-69
2021/10/28 04:16:28;;;;;;;25.08;14.78;;;;;;;10.89;74.42;101579.56;1713600;81;25794;-67
2021/10/28 04:17:47;;;;;;;29.05;15.38;;;;;;;10.74;74.55;101581.77;1694743;83;25833;-68
2021/10/28 04:20:20;;;;;;;26.45;15.60;;;;;;;10.70;74.54;101582.78;1700874;82;27508;-68
2021/10/28 04:28:53;;;;;;;26.80;15.83;;;;;;;10.60;74.67;101582.63;1697237;82;25790;-67
2021/10/28 04:30:19;;;;;;;23.18;14.95;;;;;;;10.51;74.69;101582.02;1706475;82;25939;-67
2021/10/28 04:32:45;;;;;;;32.20;17.12;;;;;;;10.47;74.70;101581.22;1710868;82;27545;-68
2021/10/28 04:35:12;;;;;;;31.95;16.57;;;;;;;10.42;74.70;101580.47;1720948;81;25940;-67
2021/10/28 04:37:39;;;;;;;29.30;16.82;;;;;;;10.38;74.77;101578.37;1704926;82;26597;-67
2021/10/28 04:40:07;;;;;;;34.60;17.87;;;;;;;10.35;74.81;101578.45;1721373;81;25848;-68
2021/10/28 04:42:33;;;;;;;33.35;18.02;;;;;;;10.32;74.86;101581.22;1705203;82;25795;-68
2021/10/28 04:44:59;;;;;;;30.17;17.15;;;;;;;10.29;74.85;101584.44;1725391;81;28252;-67
2021/10/28 04:47:25;;;;;;;32.65;17.27;;;;;;;10.27;74.87;101584.94;1724116;81;26381;-68
2021/10/28 04:49:51;;;;;;;37.80;18.23;;;;;;;10.23;74.90;101580.59;1715096;81;25896;-68
2021/10/28 04:52:20;;;;;;;30.77;17.75;;;;;;;10.21;74.94;101575.73;1724875;81;25975;-68
2021/10/28 04:54:45;;;;;;;32.73;18.52;;;;;;;10.20;75.01;101575.31;1722788;81;25782;-67
2021/10/28 04:57:11;;;;;;;31.87;17.82;;;;;;;10.18;75.07;101576.66;1725545;81;27407;-68
2021/10/28 04:59:37;;;;;;;34.65;17.77;;;;;;;10.18;75.04;101574.44;1718623;81;27199;-68
2021/10/28 05:02:05;;;;;;;31.10;19.10;;;;;;;10.16;75.09;101569.13;1721679;81;25808;-68
2021/10/28 05:04:31;;;;;;;33.53;17.82;;;;;;;10.16;75.14;101572.27;1712882;81;25758;-69
2021/10/28 05:06:57;;;;;;;34.73;19.00;;;;;;;10.15;75.16;101567.36;1723203;81;25979;-67
2021/10/28 05:09:32;;;;;;;40.95;19.85;;;;;;;10.17;75.17;101568.66;1725512;81;27397;-68
2021/10/28 05:11:53;;;;;;;42.50;20.43;;;;;;;10.16;75.22;101573.14;1716274;81;25801;-67
2021/10/28 05:14:19;;;;;;;35.75;18.52;;;;;;;10.15;75.20;101574.06;1724744;81;25842;-68
2021/10/28 05:16:45;;;;;;;39.92;20.37;;;;;;;10.15;75.24;101581.22;1718118;81;26127;-68
2021/10/28 05:19:11;;;;;;;39.58;19.27;;;;;;;10.15;75.27;101579.88;1722531;81;25788;-67
2021/10/28 05:21:37;;;;;;;41.80;21.40;;;;;;;10.14;75.29;101578.12;1716014;81;27359;-69
2021/10/28 05:24:03;;;;;;;36.75;19.87;;;;;;;10.13;75.34;101578.58;1725494;81;26379;-70
2021/10/28 05:26:29;;;;;;;37.63;19.98;;;;;;;10.14;75.37;101579.46;1698997;82;25848;-67
2021/10/28 05:28:55;;;;;;;44.75;20.70;;;;;;;10.13;75.38;101574.56;1725543;81;25759;-67
2021/10/28 05:31:22;;;;;;;41.88;20.43;;;;;;;10.12;75.35;101580.84;1698203;82;25856;-67
2021/10/28 05:33:49;;;;;;;36.05;19.62;;;;;;;10.13;75.37;101584.40;1695563;82;28091;-67
2021/10/28 05:36:14;;;;;;;36.00;20.85;;;;;;;10.10;75.41;101582.68;1720170;81;26362;-67
2021/10/28 05:38:40;;;;;;;39.18;20.80;;;;;;;10.07;75.40;101586.31;1700225;82;25835;-67
2021/10/28 05:41:06;;;;;;;38.08;20.25;;;;;;;10.08;75.49;101591.22;1723540;81;25862;-67
2021/10/28 05:43:33;;;;;;;35.68;19.73;;;;;;;10.03;75.47;101583.30;1700232;82;25714;-67
2021/10/28 05:45:59;;;;;;;41.53;23.02;;;;;;;10.04;75.50;101594.44;1675128;82;27358;-67
2021/10/28 05:48:24;;;;;;;44.30;21.52;;;;;;;10.02;75.55;101592.25;1726513;81;25918;-67
2021/10/28 05:50:50;;;;;;;39.55;21.82;;;;;;;10.02;75.54;101594.94;1696054;82;25879;-67
2021/10/28 05:53:17;;;;;;;38.45;21.70;;;;;;;10.02;75.56;101596.73;1724398;81;25707;-68
2021/10/28 05:55:43;;;;;;;35.68;19.60;;;;;;;10.03;75.59;101601.17;1703249;82;26411;-67
2021/10/28 05:58:09;;;;;;;41.73;21.75;;;;;;;10.02;75.55;101600.29;1720303;81;27481;-69
2021/10/28 06:00:35;;;;;;;37.50;21.33;;;;;;;10.01;75.59;101599.87;1694332;82;25788;-68
2021/10/28 06:03:01;;;;;;;46.95;22.37;;;;;;;10.00;75.59;101604.80;1702465;82;25872;-68
2021/10/28 06:05:27;;;;;;;40.78;21.70;;;;;;;10.00;75.65;101609.28;1732047;81;25941;-68
2021/10/28 06:07:53;;;;;;;45.25;23.12;;;;;;;9.99;75.62;101607.06;1702716;82;26534;-68
2021/10/28 06:10:19;;;;;;;44.70;22.58;;;;;;;9.97;75.63;101609.36;1743409;81;27480;-68
2021/10/28 06:12:49;;;;;;;42.73;22.10;;;;;;;9.95;75.58;101603.16;1728410;81;25889;-68
2021/10/28 06:15:16;;;;;;;50.35;23.87;;;;;;;9.90;75.62;101609.98;1732008;81;25803;-67
2021/10/28 06:17:48;;;;;;;48.35;23.27;;;;;;;9.87;75.62;101614.07;1725776;81;26045;-67
2021/10/28 06:20:12;;;;;;;44.00;22.58;;;;;;;9.84;75.65;101622.64;1729876;81;27084;-70
2021/10/28 06:22:38;;;;;;;44.00;22.48;;;;;;;9.82;75.70;101618.66;1727040;81;27482;-67
2021/10/28 06:25:04;;;;;;;44.75;23.07;;;;;;;9.79;75.72;101623.20;1736529;81;26030;-67
2021/10/28 06:27:30;;;;;;;50.17;24.80;;;;;;;9.75;75.70;101623.28;1723842;81;25963;-67
2021/10/28 06:29:56;;;;;;;47.70;23.32;;;;;;;9.74;75.75;101626.00;1711283;82;27004;-67
2021/10/28 06:32:22;;;;;;;45.48;23.50;;;;;;;9.70;75.72;101626.99;1733541;81;26025;-67
2021/10/28 06:34:48;;;;;;;39.85;22.52;;;;;;;9.67;75.78;101631.95;1732286;81;27402;-68
2021/10/28 06:37:16;;;;;;;49.15;24.43;;;;;;;9.65;75.78;101632.45;1711291;82;25798;-66
2021/10/28 06:39:42;;;;;;;44.73;23.45;;;;;;;9.60;75.72;101632.14;1718856;81;26557;-65
2021/10/28 06:42:13;;;;;;;49.25;24.90;;;;;;;9.57;75.75;101638.91;1695160;82;25942;-67
2021/10/28 06:44:40;;;;;;;43.65;23.73;;;;;;;9.51;75.68;101639.92;1698516;82;25777;-66
2021/10/28 06:47:07;;;;;;;54.30;26.20;;;;;;;9.49;75.87;101635.52;1739413;80;28132;-68
2021/10/28 06:49:38;;;;;;;49.35;25.37;;;;;;;9.49;75.98;101631.51;1733668;81;25796;-68
2021/10/28 06:52:05;;;;;;;48.60;24.98;;;;;;;9.46;75.96;101624.89;1704108;82;26376;-68
2021/10/28 06:54:38;;;;;;;49.03;25.57;;;;;;;9.42;75.87;101628.09;1729786;81;25931;-65
2021/10/28 06:57:36;;;;;;;46.98;25.68;;;;;;;9.41;75.94;101639.72;1698683;83;25814;-67
2021/10/28 07:02:33;;;;;;;59.80;28.67;;;;;;;9.33;75.97;101630.98;1723188;81;25858;-69
2021/10/28 07:04:59;;;;;;;64.75;29.90;;;;;;;9.31;76.10;101635.02;1703491;82;25956;-69
2021/10/28 07:07:30;;;;;;;62.00;28.02;;;;;;;9.32;76.15;101630.09;1725452;82;25864;-68
2021/10/28 07:10:13;;;;;;;48.55;26.33;;;;;;;9.34;76.20;101638.09;1700918;82;26528;-68
2021/10/28 07:12:52;;;;;;;56.25;27.27;;;;;;;9.34;76.22;101636.30;1707195;82;27659;-69
2021/10/28 07:15:24;;;;;;;49.38;25.62;;;;;;;9.36;76.22;101634.92;1716665;81;25818;-68
2021/10/28 07:18:03;;;;;;;56.70;27.07;;;;;;;9.37;76.20;101634.00;1692783;83;26528;-70
2021/10/28 07:20:27;;;;;;;53.85;26.15;;;;;;;9.37;76.27;101632.67;1691384;83;25811;-67
2021/10/28 07:28:40;;;;;;;50.38;27.67;;;;;;;9.32;76.29;101624.75;1686658;83;28177;-67
2021/10/28 07:30:53;;;;;;;56.73;26.62;;;;;;;9.36;76.39;101622.42;1718714;81;25819;-66
2021/10/28 07:33:19;;;;;;;50.52;26.97;;;;;;;9.40;76.38;101621.44;1697365;82;25805;-66
2021/10/28 08:00:03;;;;;;;54.70;26.65;;;;;;;9.87;76.49;101603.81;1724146;81;26422;-67
2021/10/28 08:05:22;;;;;;;52.25;26.20;;;;;;;9.98;76.45;101607.98;1735246;80;27432;-67
2021/10/28 08:18:25;;;;;;;49.70;27.67;;;;;;;10.32;76.40;101609.35;1737862;80;27515;-66
2021/10/28 08:20:46;;;;;;;51.35;25.77;;;;;;;10.39;76.41;101600.69;1737628;80;25712;-67
2021/10/28 08:31:10;;;;;;;53.58;26.55;;;;;;;10.64;76.23;101593.69;1739478;80;27490;-68
2021/10/28 08:33:36;;;;;;;51.30;25.75;;;;;;;10.71;76.21;101589.03;1737114;80;25785;-66
2021/10/28 08:36:10;;;;;;;51.90;25.95;;;;;;;10.79;76.19;101592.83;1737666;80;25925;-69
2021/10/28 08:38:37;;;;;;;49.53;25.55;;;;;;;10.86;76.11;101595.28;1735895;80;26132;-66
2021/10/28 08:41:07;;;;;;;49.30;24.52;;;;;;;10.93;76.08;101593.30;1735472;80;25791;-66
2021/10/28 08:43:36;;;;;;;49.88;27.17;;;;;;;10.98;76.02;101587.34;1726786;80;28201;-65
2021/10/28 08:46:07;;;;;;;53.45;26.15;;;;;;;11.05;75.98;101588.45;1675623;82;25934;-66
2021/10/28 08:48:35;;;;;;;59.13;28.83;;;;;;;11.13;75.98;101582.85;1740267;80;30661;-67
2021/10/28 08:51:08;;;;;;;55.12;26.02;;;;;;;11.21;75.82;101582.16;1739008;80;26073;-68
2021/10/28 08:53:48;;;;;;;57.85;27.70;;;;;;;11.30;75.85;101583.20;1703588;82;25880;-67
2021/10/28 08:56:01;;;;;;;52.37;26.00;;;;;;;11.49;75.39;101577.25;1749131;80;28072;-65
2021/10/28 08:58:43;;;;;;;51.70;25.62;;;;;;;11.49;75.39;101577.25;1714459;82;25729;-67
2021/10/28 09:27:10;;;;;;;43.25;24.10;;;;;;;12.31;74.70;101552.51;1707828;82;25864;-67
2021/10/28 09:29:06;;;;;;;44.25;23.35;;;;;;;12.40;74.63;101548.61;1671009;82;25944;-67
2021/10/28 09:31:34;;;;;;;47.62;23.45;;;;;;;12.47;74.52;101551.48;1711902;82;25731;-65
2021/10/28 09:34:20;;;;;;;42.08;22.30;;;;;;;12.54;74.35;101551.67;1705969;82;25927;-66
2021/10/28 09:49:47;;;;;;;36.70;20.92;;;;;;;12.74;73.55;101554.08;1674357;83;25880;-66
2021/10/28 09:51:05;;;;;;;36.40;20.08;;;;;;;12.78;73.13;101555.25;1706576;82;27475;-65
2021/10/28 09:53:54;;;;;;;32.35;19.77;;;;;;;12.85;73.38;101554.55;1671943;84;25813;-65
2021/10/28 09:59:08;;;;;;;34.83;19.65;;;;;;;12.98;73.21;101543.26;1709134;82;25922;-67
2021/10/28 10:01:45;;;;;;;31.80;19.32;;;;;;;13.07;73.02;101554.09;1668846;83;25933;-67
2021/10/28 10:04:07;;;;;;;26.48;17.35;;;;;;;13.12;72.82;101554.80;1694810;82;27614;-66
2021/10/28 10:06:40;;;;;;;34.92;17.95;;;;;;;13.20;72.75;101542.41;1710448;82;26562;-66
2021/10/28 10:09:04;;;;;;;27.50;18.70;;;;;;;13.28;72.62;101551.94;1732647;81;25824;-66
2021/10/28 10:11:32;;;;;;;37.00;19.02;;;;;;;13.38;72.53;101535.41;1717103;81;26000;-66
2021/10/28 10:14:00;;;;;;;29.00;18.07;;;;;;;13.49;72.31;101539.89;1709458;81;26559;-66
2021/10/28 10:16:26;;;;;;;31.17;17.73;;;;;;;13.59;72.26;101534.05;1733355;81;28206;-66
2021/10/28 10:18:52;;;;;;;33.28;17.30;;;;;;;13.65;72.11;101535.14;1709331;82;25880;-66
2021/10/28 10:21:33;;;;;;;31.60;18.50;;;;;;;13.73;71.99;101530.78;1730364;81;25912;-66
2021/10/28 10:24:14;;;;;;;35.68;18.80;;;;;;;13.85;72.03;101538.34;1726741;81;25988;-66
2021/10/28 10:30:06;;;;;;;32.17;18.60;;;;;;;14.16;69.66;101531.63;1732870;81;28274;-67
2021/10/28 11:28:39;;;;;;;22.02;14.33;;;;;;;15.52;68.48;101475.67;1728871;81;27512;-67
2021/10/28 12:16:36;;;;;;;17.77;11.90;;;;;;;16.49;65.80;101422.75;1699017;82;25802;-67
2021/10/28 12:25:02;;;;;;;21.93;13.38;;;;;;;16.44;65.18;101416.23;1703553;82;27351;-66
2021/10/28 12:47:10;;;;;;;19.52;11.57;;;;;;;16.79;64.00;101393.98;1728518;81;25810;-65
2021/10/28 13:50:17;;;;;;;24.10;13.08;;;;;;;16.65;61.35;101368.66;1728887;81;26737;-66
2021/10/28 13:53:15;;;;;;;17.95;10.58;;;;;;;16.61;61.29;101363.88;1731316;81;25792;-66
2021/10/28 13:55:53;;;;;;;18.12;10.88;;;;;;;16.58;61.25;101357.76;1719432;81;25854;-67
2021/10/28 13:58:16;;;;;;;17.37;10.05;;;;;;;16.58;61.23;101359.11;1723084;81;25978;-66
2021/10/28 14:01:00;;;;;;;17.70;10.63;;;;;;;16.58;61.19;101357.76;1734795;80;27469;-67
2021/10/28 14:30:44;;;;;;;24.52;13.58;;;;;;;16.24;60.73;101352.41;1740565;80;25969;-65
2021/10/28 15:00:25;;;;;;;21.12;12.13;;;;;;;15.61;60.75;101328.41;1734453;80;25742;-67
2021/10/28 15:02:36;;;;;;;21.12;12.30;;;;;;;15.53;60.78;101327.45;1723482;81;26433;-67
2021/10/28 15:29:30;;;;;;;22.67;13.30;;;;;;;14.73;61.19;101314.96;1724871;81;26517;-69
2021/10/28 15:32:20;;;;;;;19.82;13.80;;;;;;;14.63;61.24;101305.58;1729664;81;25732;-67
2021/10/28 15:37:54;;;;;;;20.77;13.58;;;;;;;14.46;61.36;101313.14;1702913;83;25693;-68
2021/10/28 15:42:40;;;;;;;29.30;16.40;;;;;;;14.28;61.51;101308.13;1738824;81;26173;-67
2021/10/28 15:50:56;;;;;;;29.85;17.15;;;;;;;14.03;61.74;101296.77;1730128;81;27167;-68
2021/10/28 15:58:58;;;;;;;35.40;18.73;;;;;;;13.75;62.07;101297.66;1686552;82;26133;-68
2021/10/28 16:01:23;;;;;;;37.35;18.45;;;;;;;13.66;62.20;101293.56;1727277;81;25757;-68
2021/10/28 16:22:42;;;;;;;42.38;19.52;;;;;;;13.13;63.04;101283.34;1741499;80;25779;-68
2021/10/28 16:25:07;;;;;;;34.67;20.27;;;;;;;13.07;63.16;101284.95;1740168;80;25748;-66
2021/10/28 16:27:33;;;;;;;43.25;21.05;;;;;;;13.01;63.23;101283.88;1713415;81;27426;-66
2021/10/28 16:29:59;;;;;;;39.18;21.05;;;;;;;12.94;63.32;101280.61;1734089;80;25818;-68
2021/10/28 16:32:25;;;;;;;37.58;20.00;;;;;;;12.91;63.44;101279.86;1735921;80;25833;-70
2021/10/28 16:34:51;;;;;;;35.08;19.02;;;;;;;12.87;63.53;101283.63;1740008;80;26555;-69
2021/10/28 16:37:18;;;;;;;37.20;21.73;;;;;;;12.81;63.62;101281.19;1737843;80;26426;-68
2021/10/28 16:39:44;;;;;;;35.38;20.65;;;;;;;12.75;63.69;101276.07;1706887;82;28050;-68
2021/10/28 16:42:10;;;;;;;42.10;21.17;;;;;;;12.70;63.82;101273.58;1709700;82;26072;-67
2021/10/28 16:44:41;;;;;;;36.55;20.17;;;;;;;12.65;63.90;101269.73;1738083;80;25857;-69
2021/10/28 16:47:04;;;;;;;37.38;20.60;;;;;;;12.62;64.01;101271.67;1724174;82;25830;-69
2021/10/28 16:49:30;;;;;;;36.28;20.08;;;;;;;12.57;64.08;101270.52;1710240;82;25736;-68
2021/10/28 16:51:56;;;;;;;36.93;21.25;;;;;;;12.54;64.19;101274.69;1736882;80;27494;-68
2021/10/28 16:54:22;;;;;;;44.63;20.62;;;;;;;12.46;64.28;101257.13;1742517;80;25888;-69
2021/10/28 16:56:48;;;;;;;39.33;22.52;;;;;;;12.49;64.37;101271.78;1740985;80;25599;-68
2021/10/28 16:59:14;;;;;;;42.15;21.25;;;;;;;12.44;64.45;101271.97;1741248;80;26013;-69
2021/10/28 17:01:41;;;;;;;36.65;20.90;;;;;;;12.41;64.55;101274.78;1742880;80;25689;-68
2021/10/28 17:04:08;;;;;;;38.75;21.52;;;;;;;12.38;64.60;101269.53;1741023;80;27418;-68
2021/10/28 17:06:34;;;;;;;38.05;20.92;;;;;;;12.35;64.66;101267.84;1730121;81;25682;-68
2021/10/28 17:09:05;;;;;;;39.80;21.85;;;;;;;12.33;64.78;101267.50;1726154;81;25975;-69
2021/10/28 17:11:28;;;;;;;43.73;22.62;;;;;;;12.31;64.89;101269.38;1733946;81;26165;-68
2021/10/28 17:13:56;;;;;;;44.42;23.00;;;;;;;12.30;64.93;101268.97;1699612;82;25857;-69
2021/10/28 17:16:22;;;;;;;43.02;24.77;;;;;;;12.28;65.01;101264.13;1719020;81;27728;-69
2021/10/28 17:18:47;;;;;;;45.90;25.82;;;;;;;12.25;65.08;101259.75;1740890;81;26044;-68
2021/10/28 17:21:13;;;;;;;43.80;24.12;;;;;;;12.24;65.13;101262.50;1730161;81;25814;-68
2021/10/28 17:23:42;;;;;;;47.17;24.55;;;;;;;12.22;65.22;101265.72;1735010;81;26091;-69
2021/10/28 17:26:10;;;;;;;40.70;24.40;;;;;;;12.21;65.30;101265.31;1726746;81;25786;-68
2021/10/28 17:28:35;;;;;;;49.65;24.92;;;;;;;12.20;65.33;101267.59;1737914;81;27970;-68
2021/10/28 17:31:04;;;;;;;51.23;25.02;;;;;;;12.17;65.39;101264.55;1741811;81;26406;-68
2021/10/28 17:33:31;;;;;;;45.98;25.15;;;;;;;12.15;65.46;101266.89;1729814;81;25734;-68
2021/10/28 17:35:58;;;;;;;46.05;24.90;;;;;;;12.12;65.49;101264.33;1727952;81;26144;-68
2021/10/28 17:38:26;;;;;;;45.00;24.77;;;;;;;12.07;65.56;101265.86;1731281;81;26098;-69
2021/10/28 17:40:52;;;;;;;53.23;27.77;;;;;;;12.05;65.60;101264.17;1737504;81;27443;-68
2021/10/28 17:43:21;;;;;;;53.20;28.23;;;;;;;12.01;65.64;101263.41;1726861;81;26218;-67
2021/10/28 17:45:51;;;;;;;60.83;30.57;;;;;;;11.98;65.71;101262.19;1743274;81;25757;-68
2021/10/28 17:48:14;;;;;;;63.98;30.10;;;;;;;11.94;65.76;101257.41;1717592;82;25811;-67
2021/10/28 17:50:39;;;;;;;62.38;30.23;;;;;;;11.93;65.83;101262.84;1729082;81;25759;-68
2021/10/28 17:53:05;;;;;;;55.73;29.27;;;;;;;11.91;65.88;101264.70;1722961;81;27430;-68
2021/10/28 17:55:31;;;;;;;57.58;29.18;;;;;;;11.87;65.93;101259.92;1731345;81;27216;-67
2021/10/28 17:57:57;;;;;;;60.38;30.62;;;;;;;11.85;66.00;101260.45;1725727;81;25897;-67
2021/10/28 18:00:24;;;;;;;58.20;30.62;;;;;;;11.82;66.05;101263.72;1726572;80;26551;-67
2021/10/28 18:02:57;;;;;;;57.78;28.35;;;;;;;11.78;66.07;101262.09;1736387;81;25907;-67
2021/10/28 18:05:23;;;;;;;55.88;29.75;;;;;;;11.75;66.11;101263.52;1707955;82;27827;-67
2021/10/28 18:07:49;;;;;;;60.25;32.13;;;;;;;11.71;66.18;101256.04;1732143;80;27279;-66
2021/10/28 18:10:16;;;;;;;55.15;28.50;;;;;;;11.68;66.28;101258.38;1733727;81;25710;-68
2021/10/28 18:12:43;;;;;;;57.13;28.02;;;;;;;11.65;66.29;101254.47;1731968;81;26101;-66
2021/10/28 18:15:09;;;;;;;53.98;30.45;;;;;;;11.62;66.35;101253.70;1738367;81;25915;-65
2021/10/28 18:17:35;;;;;;;54.38;31.10;;;;;;;11.57;66.38;101255.22;1735973;81;28354;-66
2021/10/28 18:20:05;;;;;;;61.83;30.00;;;;;;;11.53;66.48;101252.71;1725905;81;25908;-66
2021/10/28 18:22:38;;;;;;;60.33;31.60;;;;;;;11.52;66.57;101250.96;1732641;81;26608;-65
2021/10/28 18:25:10;;;;;;;51.48;28.90;;;;;;;11.48;66.59;101244.83;1722281;80;25735;-66
2021/10/28 18:27:39;;;;;;;61.28;31.27;;;;;;;11.45;66.63;101246.75;1732085;81;25830;-65
2021/10/28 18:30:10;;;;;;;60.08;30.92;;;;;;;11.39;66.72;101236.66;1737286;81;27394;-66
2021/10/28 18:32:37;;;;;;;60.10;30.55;;;;;;;11.36;66.74;101234.08;1735995;81;25862;-66
2021/10/28 18:35:05;;;;;;;57.55;31.87;;;;;;;11.31;66.79;101230.69;1734522;80;25934;-66
2021/10/28 18:37:31;;;;;;;64.47;32.95;;;;;;;11.26;66.85;101235.36;1736023;81;25773;-66
2021/10/28 18:39:57;;;;;;;63.70;33.63;;;;;;;11.22;66.93;101236.87;1731972;81;25742;-66
2021/10/28 18:42:24;;;;;;;63.35;32.33;;;;;;;11.16;66.97;101229.91;1730967;81;27484;-68